sensor_id;sensor_type;location;lat;lon;timestamp;P1;durP1;ratioP1;P2;durP2;ratioP2
1569;SDS011;778;50.120;8.698;2023-04-15T00:00:01;6.63;;;5.67;;
1569;SDS011;778;50.120;8.698;2023-04-15T00:02:38;8.40;;;5.63;;
1569;SDS011;778;50.120;8.698;2023-04-15T00:05:07;9.30;;;6.10;;
1569;SDS011;778;50.120;8.698;2023-04-15T00:07:36;7.10;;;5.70;;
1569;SDS011;778;50.120;8.698;2023-04-15T00:10:06;7.60;;;6.90;;
1569;SDS011;778;50.120;8.698;2023-04-15T00:12:35;7.20;;;5.97;;
1569;SDS011;778;50.120;8.698;2023-04-15T00:15:06;8.70;;;6.10;;
1569;SDS011;778;50.120;8.698;2023-04-15T00:17:35;6.30;;;5.17;;
1569;SDS011;778;50.120;8.698;2023-04-15T00:20:05;7.87;;;6.20;;
1569;SDS011;778;50.120;8.698;2023-04-15T00:22:34;7.77;;;6.33;;
1569;SDS011;778;50.120;8.698;2023-04-15T00:25:03;10.87;;;6.30;;
1569;SDS011;778;50.120;8.698;2023-04-15T00:27:32;7.70;;;6.23;;
1569;SDS011;778;50.120;8.698;2023-04-15T00:30:00;9.23;;;6.47;;
1569;SDS011;778;50.120;8.698;2023-04-15T00:32:30;8.43;;;5.53;;
1569;SDS011;778;50.120;8.698;2023-04-15T00:34:59;8.13;;;5.60;;
1569;SDS011;778;50.120;8.698;2023-04-15T00:37:28;8.00;;;6.00;;
1569;SDS011;778;50.120;8.698;2023-04-15T00:39:57;6.33;;;4.87;;
1569;SDS011;778;50.120;8.698;2023-04-15T00:42:25;6.40;;;5.80;;
1569;SDS011;778;50.120;8.698;2023-04-15T00:44:55;7.33;;;5.50;;
1569;SDS011;778;50.120;8.698;2023-04-15T00:47:23;6.83;;;4.87;;
1569;SDS011;778;50.120;8.698;2023-04-15T00:49:55;5.87;;;4.77;;
1569;SDS011;778;50.120;8.698;2023-04-15T00:52:24;6.13;;;5.53;;
1569;SDS011;778;50.120;8.698;2023-04-15T00:54:53;6.27;;;5.63;;
1569;SDS011;778;50.120;8.698;2023-04-15T00:57:21;5.73;;;5.03;;
1569;SDS011;778;50.120;8.698;2023-04-15T00:59:50;7.00;;;5.10;;
1569;SDS011;778;50.120;8.698;2023-04-15T01:02:19;5.30;;;4.80;;
1569;SDS011;778;50.120;8.698;2023-04-15T01:04:48;6.23;;;4.97;;
1569;SDS011;778;50.120;8.698;2023-04-15T01:07:18;14.03;;;5.50;;
1569;SDS011;778;50.120;8.698;2023-04-15T01:09:47;5.60;;;5.10;;
1569;SDS011;778;50.120;8.698;2023-04-15T01:12:15;7.03;;;4.77;;
1569;SDS011;778;50.120;8.698;2023-04-15T01:14:44;6.03;;;4.53;;
1569;SDS011;778;50.120;8.698;2023-04-15T01:17:13;5.63;;;4.53;;
1569;SDS011;778;50.120;8.698;2023-04-15T01:19:41;6.80;;;4.87;;
1569;SDS011;778;50.120;8.698;2023-04-15T01:22:10;5.17;;;4.63;;
1569;SDS011;778;50.120;8.698;2023-04-15T01:24:40;7.03;;;4.80;;
1569;SDS011;778;50.120;8.698;2023-04-15T01:27:19;6.30;;;4.57;;
1569;SDS011;778;50.120;8.698;2023-04-15T01:29:48;6.40;;;4.73;;
1569;SDS011;778;50.120;8.698;2023-04-15T01:32:16;7.97;;;5.07;;
1569;SDS011;778;50.120;8.698;2023-04-15T01:34:45;6.50;;;4.60;;
1569;SDS011;778;50.120;8.698;2023-04-15T01:37:13;5.50;;;4.20;;
1569;SDS011;778;50.120;8.698;2023-04-15T01:39:42;6.40;;;4.50;;
1569;SDS011;778;50.120;8.698;2023-04-15T01:42:10;7.23;;;4.63;;
1569;SDS011;778;50.120;8.698;2023-04-15T01:44:40;4.80;;;4.40;;
1569;SDS011;778;50.120;8.698;2023-04-15T01:47:10;6.50;;;4.60;;
1569;SDS011;778;50.120;8.698;2023-04-15T01:49:40;4.60;;;4.20;;
1569;SDS011;778;50.120;8.698;2023-04-15T01:52:08;7.47;;;5.00;;
1569;SDS011;778;50.120;8.698;2023-04-15T01:54:38;6.73;;;4.63;;
1569;SDS011;778;50.120;8.698;2023-04-15T01:57:07;6.90;;;5.07;;
1569;SDS011;778;50.120;8.698;2023-04-15T01:59:36;5.10;;;4.50;;
1569;SDS011;778;50.120;8.698;2023-04-15T02:02:06;4.60;;;4.03;;
1569;SDS011;778;50.120;8.698;2023-04-15T02:04:34;4.57;;;4.10;;
1569;SDS011;778;50.120;8.698;2023-04-15T02:07:03;6.93;;;4.60;;
1569;SDS011;778;50.120;8.698;2023-04-15T02:09:34;5.53;;;4.33;;
1569;SDS011;778;50.120;8.698;2023-04-15T02:12:02;10.13;;;5.40;;
1569;SDS011;778;50.120;8.698;2023-04-15T02:14:31;4.57;;;4.10;;
1569;SDS011;778;50.120;8.698;2023-04-15T02:16:59;6.10;;;3.90;;
1569;SDS011;778;50.120;8.698;2023-04-15T02:19:35;5.23;;;4.20;;
1569;SDS011;778;50.120;8.698;2023-04-15T02:22:04;6.93;;;4.50;;
1569;SDS011;778;50.120;8.698;2023-04-15T02:24:34;6.17;;;4.70;;
1569;SDS011;778;50.120;8.698;2023-04-15T02:27:03;9.93;;;4.80;;
1569;SDS011;778;50.120;8.698;2023-04-15T02:29:31;6.00;;;5.13;;
1569;SDS011;778;50.120;8.698;2023-04-15T02:32:00;5.07;;;4.57;;
1569;SDS011;778;50.120;8.698;2023-04-15T02:34:28;7.93;;;4.50;;
1569;SDS011;778;50.120;8.698;2023-04-15T02:37:00;6.97;;;4.73;;
1569;SDS011;778;50.120;8.698;2023-04-15T02:39:29;6.93;;;4.80;;
1569;SDS011;778;50.120;8.698;2023-04-15T02:41:58;6.97;;;4.63;;
1569;SDS011;778;50.120;8.698;2023-04-15T02:44:26;8.67;;;4.53;;
1569;SDS011;778;50.120;8.698;2023-04-15T02:46:57;5.50;;;4.60;;
1569;SDS011;778;50.120;8.698;2023-04-15T02:49:26;4.70;;;4.23;;
1569;SDS011;778;50.120;8.698;2023-04-15T02:51:56;5.73;;;5.20;;
1569;SDS011;778;50.120;8.698;2023-04-15T02:54:26;7.07;;;4.10;;
1569;SDS011;778;50.120;8.698;2023-04-15T02:56:55;5.33;;;4.60;;
1569;SDS011;778;50.120;8.698;2023-04-15T02:59:24;8.60;;;4.73;;
1569;SDS011;778;50.120;8.698;2023-04-15T03:01:52;7.53;;;4.70;;
1569;SDS011;778;50.120;8.698;2023-04-15T03:04:22;9.57;;;5.40;;
1569;SDS011;778;50.120;8.698;2023-04-15T03:06:50;8.33;;;5.20;;
1569;SDS011;778;50.120;8.698;2023-04-15T03:09:19;6.67;;;4.73;;
1569;SDS011;778;50.120;8.698;2023-04-15T03:11:48;5.97;;;4.13;;
1569;SDS011;778;50.120;8.698;2023-04-15T03:14:19;5.70;;;5.07;;
1569;SDS011;778;50.120;8.698;2023-04-15T03:16:47;6.57;;;4.97;;
1569;SDS011;778;50.120;8.698;2023-04-15T03:19:17;9.80;;;5.50;;
1569;SDS011;778;50.120;8.698;2023-04-15T03:21:45;7.33;;;6.10;;
1569;SDS011;778;50.120;8.698;2023-04-15T03:24:15;8.93;;;5.50;;
1569;SDS011;778;50.120;8.698;2023-04-15T03:26:43;8.30;;;5.53;;
1569;SDS011;778;50.120;8.698;2023-04-15T03:29:16;6.43;;;5.70;;
1569;SDS011;778;50.120;8.698;2023-04-15T03:31:44;8.20;;;6.30;;
1569;SDS011;778;50.120;8.698;2023-04-15T03:34:13;6.63;;;5.70;;
1569;SDS011;778;50.120;8.698;2023-04-15T03:36:41;7.40;;;6.67;;
1569;SDS011;778;50.120;8.698;2023-04-15T03:39:10;6.33;;;5.73;;
1569;SDS011;778;50.120;8.698;2023-04-15T03:41:38;6.83;;;6.23;;
1569;SDS011;778;50.120;8.698;2023-04-15T03:44:07;6.60;;;5.90;;
1569;SDS011;778;50.120;8.698;2023-04-15T03:46:36;8.67;;;6.43;;
1569;SDS011;778;50.120;8.698;2023-04-15T03:49:05;7.33;;;5.90;;
1569;SDS011;778;50.120;8.698;2023-04-15T03:51:34;7.43;;;6.37;;
1569;SDS011;778;50.120;8.698;2023-04-15T03:54:02;6.23;;;5.60;;
1569;SDS011;778;50.120;8.698;2023-04-15T03:56:31;10.90;;;6.40;;
1569;SDS011;778;50.120;8.698;2023-04-15T03:58:59;9.50;;;7.70;;
1569;SDS011;778;50.120;8.698;2023-04-15T04:01:28;9.93;;;7.03;;
1569;SDS011;778;50.120;8.698;2023-04-15T04:03:58;7.40;;;6.67;;
1569;SDS011;778;50.120;8.698;2023-04-15T04:06:26;9.27;;;7.20;;
1569;SDS011;778;50.120;8.698;2023-04-15T04:08:55;6.33;;;5.63;;
1569;SDS011;778;50.120;8.698;2023-04-15T04:11:23;5.73;;;5.17;;
1569;SDS011;778;50.120;8.698;2023-04-15T04:13:53;7.10;;;6.17;;
1569;SDS011;778;50.120;8.698;2023-04-15T04:16:22;6.80;;;5.77;;
1569;SDS011;778;50.120;8.698;2023-04-15T04:18:50;12.27;;;6.33;;
1569;SDS011;778;50.120;8.698;2023-04-15T04:21:20;7.20;;;5.40;;
1569;SDS011;778;50.120;8.698;2023-04-15T04:23:48;6.07;;;5.47;;
1569;SDS011;778;50.120;8.698;2023-04-15T04:26:17;7.03;;;4.80;;
1569;SDS011;778;50.120;8.698;2023-04-15T04:28:46;10.70;;;5.53;;
1569;SDS011;778;50.120;8.698;2023-04-15T04:31:14;6.40;;;5.43;;
1569;SDS011;778;50.120;8.698;2023-04-15T04:33:43;8.07;;;5.90;;
1569;SDS011;778;50.120;8.698;2023-04-15T04:36:11;7.50;;;5.60;;
1569;SDS011;778;50.120;8.698;2023-04-15T04:38:41;6.53;;;5.93;;
1569;SDS011;778;50.120;8.698;2023-04-15T04:41:09;7.43;;;6.27;;
1569;SDS011;778;50.120;8.698;2023-04-15T04:43:38;8.00;;;6.57;;
1569;SDS011;778;50.120;8.698;2023-04-15T04:46:06;7.17;;;6.47;;
1569;SDS011;778;50.120;8.698;2023-04-15T04:48:35;9.17;;;6.53;;
1569;SDS011;778;50.120;8.698;2023-04-15T04:51:04;7.63;;;6.83;;
1569;SDS011;778;50.120;8.698;2023-04-15T04:53:33;9.93;;;6.50;;
1569;SDS011;778;50.120;8.698;2023-04-15T04:56:04;9.03;;;6.80;;
1569;SDS011;778;50.120;8.698;2023-04-15T04:58:33;7.23;;;6.33;;
1569;SDS011;778;50.120;8.698;2023-04-15T05:01:01;8.73;;;6.47;;
1569;SDS011;778;50.120;8.698;2023-04-15T05:03:30;10.60;;;7.27;;
1569;SDS011;778;50.120;8.698;2023-04-15T05:05:58;9.87;;;7.67;;
1569;SDS011;778;50.120;8.698;2023-04-15T05:08:28;12.30;;;7.53;;
1569;SDS011;778;50.120;8.698;2023-04-15T05:10:56;8.03;;;6.60;;
1569;SDS011;778;50.120;8.698;2023-04-15T05:13:26;8.40;;;7.10;;
1569;SDS011;778;50.120;8.698;2023-04-15T05:15:55;11.93;;;7.70;;
1569;SDS011;778;50.120;8.698;2023-04-15T05:18:23;9.63;;;6.90;;
1569;SDS011;778;50.120;8.698;2023-04-15T05:20:52;10.30;;;6.87;;
1569;SDS011;778;50.120;8.698;2023-04-15T05:23:20;7.83;;;6.50;;
1569;SDS011;778;50.120;8.698;2023-04-15T05:25:49;10.13;;;7.47;;
1569;SDS011;778;50.120;8.698;2023-04-15T05:28:17;14.03;;;7.93;;
1569;SDS011;778;50.120;8.698;2023-04-15T05:30:47;7.67;;;6.83;;
1569;SDS011;778;50.120;8.698;2023-04-15T05:33:15;6.60;;;5.50;;
1569;SDS011;778;50.120;8.698;2023-04-15T05:35:44;7.90;;;6.17;;
1569;SDS011;778;50.120;8.698;2023-04-15T05:38:12;10.40;;;6.67;;
1569;SDS011;778;50.120;8.698;2023-04-15T05:40:41;9.20;;;7.83;;
1569;SDS011;778;50.120;8.698;2023-04-15T05:43:10;9.83;;;7.50;;
1569;SDS011;778;50.120;8.698;2023-04-15T05:45:38;9.13;;;7.43;;
1569;SDS011;778;50.120;8.698;2023-04-15T05:48:08;8.43;;;7.13;;
1569;SDS011;778;50.120;8.698;2023-04-15T05:50:36;9.30;;;7.07;;
1569;SDS011;778;50.120;8.698;2023-04-15T05:53:08;10.07;;;6.77;;
1569;SDS011;778;50.120;8.698;2023-04-15T05:55:37;8.27;;;6.47;;
1569;SDS011;778;50.120;8.698;2023-04-15T05:58:05;9.80;;;6.90;;
1569;SDS011;778;50.120;8.698;2023-04-15T06:00:33;9.37;;;7.10;;
1569;SDS011;778;50.120;8.698;2023-04-15T06:03:02;11.23;;;7.00;;
1569;SDS011;778;50.120;8.698;2023-04-15T06:05:33;7.90;;;6.87;;
1569;SDS011;778;50.120;8.698;2023-04-15T06:08:01;9.33;;;7.17;;
1569;SDS011;778;50.120;8.698;2023-04-15T06:10:30;7.20;;;6.50;;
1569;SDS011;778;50.120;8.698;2023-04-15T06:13:02;9.90;;;7.00;;
1569;SDS011;778;50.120;8.698;2023-04-15T06:15:30;10.03;;;7.20;;
1569;SDS011;778;50.120;8.698;2023-04-15T06:17:59;7.93;;;6.80;;
1569;SDS011;778;50.120;8.698;2023-04-15T06:20:27;9.53;;;7.43;;
1569;SDS011;778;50.120;8.698;2023-04-15T06:22:57;7.50;;;6.80;;
1569;SDS011;778;50.120;8.698;2023-04-15T06:25:26;9.73;;;7.70;;
1569;SDS011;778;50.120;8.698;2023-04-15T06:27:54;8.67;;;7.77;;
1569;SDS011;778;50.120;8.698;2023-04-15T06:30:23;10.03;;;7.17;;
1569;SDS011;778;50.120;8.698;2023-04-15T06:32:51;10.57;;;7.47;;
1569;SDS011;778;50.120;8.698;2023-04-15T06:35:21;9.03;;;7.87;;
1569;SDS011;778;50.120;8.698;2023-04-15T06:37:50;10.33;;;8.93;;
1569;SDS011;778;50.120;8.698;2023-04-15T06:40:19;11.77;;;9.80;;
1569;SDS011;778;50.120;8.698;2023-04-15T06:42:48;9.10;;;8.20;;
1569;SDS011;778;50.120;8.698;2023-04-15T06:45:17;9.00;;;8.13;;
1569;SDS011;778;50.120;8.698;2023-04-15T06:47:45;10.50;;;9.40;;
1569;SDS011;778;50.120;8.698;2023-04-15T06:50:14;11.23;;;9.50;;
1569;SDS011;778;50.120;8.698;2023-04-15T06:52:42;8.60;;;7.70;;
1569;SDS011;778;50.120;8.698;2023-04-15T06:55:11;8.63;;;7.70;;
1569;SDS011;778;50.120;8.698;2023-04-15T06:57:41;9.60;;;8.60;;
1569;SDS011;778;50.120;8.698;2023-04-15T07:00:10;10.53;;;8.33;;
1569;SDS011;778;50.120;8.698;2023-04-15T07:02:40;11.13;;;8.73;;
1569;SDS011;778;50.120;8.698;2023-04-15T07:05:08;9.97;;;8.40;;
1569;SDS011;778;50.120;8.698;2023-04-15T07:07:38;12.97;;;8.43;;
1569;SDS011;778;50.120;8.698;2023-04-15T07:10:07;9.00;;;7.90;;
1569;SDS011;778;50.120;8.698;2023-04-15T07:12:37;11.87;;;10.63;;
1569;SDS011;778;50.120;8.698;2023-04-15T07:15:07;11.47;;;10.20;;
1569;SDS011;778;50.120;8.698;2023-04-15T07:17:36;10.30;;;9.13;;
1569;SDS011;778;50.120;8.698;2023-04-15T07:20:05;10.07;;;8.43;;
1569;SDS011;778;50.120;8.698;2023-04-15T07:22:35;13.30;;;11.60;;
1569;SDS011;778;50.120;8.698;2023-04-15T07:25:04;12.23;;;10.87;;
1569;SDS011;778;50.120;8.698;2023-04-15T07:27:34;9.73;;;8.13;;
1569;SDS011;778;50.120;8.698;2023-04-15T07:30:02;14.27;;;11.40;;
1569;SDS011;778;50.120;8.698;2023-04-15T07:32:33;29.73;;;22.17;;
1569;SDS011;778;50.120;8.698;2023-04-15T07:35:02;9.13;;;8.23;;
1569;SDS011;778;50.120;8.698;2023-04-15T07:37:31;9.17;;;8.37;;
1569;SDS011;778;50.120;8.698;2023-04-15T07:40:00;9.50;;;8.50;;
1569;SDS011;778;50.120;8.698;2023-04-15T07:42:30;10.50;;;8.37;;
1569;SDS011;778;50.120;8.698;2023-04-15T07:44:58;8.77;;;7.73;;
1569;SDS011;778;50.120;8.698;2023-04-15T07:47:27;10.10;;;8.33;;
1569;SDS011;778;50.120;8.698;2023-04-15T07:49:56;10.50;;;9.47;;
1569;SDS011;778;50.120;8.698;2023-04-15T07:52:25;9.43;;;8.63;;
1569;SDS011;778;50.120;8.698;2023-04-15T07:54:54;20.57;;;15.73;;
1569;SDS011;778;50.120;8.698;2023-04-15T07:57:22;29.90;;;19.90;;
1569;SDS011;778;50.120;8.698;2023-04-15T07:59:50;10.00;;;9.10;;
1569;SDS011;778;50.120;8.698;2023-04-15T08:02:19;9.67;;;8.43;;
1569;SDS011;778;50.120;8.698;2023-04-15T08:04:48;9.33;;;8.53;;
1569;SDS011;778;50.120;8.698;2023-04-15T08:07:18;9.50;;;8.70;;
1569;SDS011;778;50.120;8.698;2023-04-15T08:09:46;8.97;;;8.17;;
1569;SDS011;778;50.120;8.698;2023-04-15T08:12:15;10.07;;;8.60;;
1569;SDS011;778;50.120;8.698;2023-04-15T08:14:43;9.87;;;8.87;;
1569;SDS011;778;50.120;8.698;2023-04-15T08:17:12;8.70;;;7.90;;
1569;SDS011;778;50.120;8.698;2023-04-15T08:19:40;8.70;;;7.90;;
1569;SDS011;778;50.120;8.698;2023-04-15T08:22:09;9.43;;;8.50;;
1569;SDS011;778;50.120;8.698;2023-04-15T08:24:44;9.30;;;8.40;;
1569;SDS011;778;50.120;8.698;2023-04-15T08:27:13;9.90;;;9.00;;
1569;SDS011;778;50.120;8.698;2023-04-15T08:29:41;8.40;;;7.57;;
1569;SDS011;778;50.120;8.698;2023-04-15T08:32:11;9.20;;;7.27;;
1569;SDS011;778;50.120;8.698;2023-04-15T08:34:39;7.90;;;7.20;;
1569;SDS011;778;50.120;8.698;2023-04-15T08:37:07;17.87;;;12.17;;
1569;SDS011;778;50.120;8.698;2023-04-15T08:39:38;6.27;;;5.70;;
1569;SDS011;778;50.120;8.698;2023-04-15T08:42:10;6.23;;;5.63;;
1569;SDS011;778;50.120;8.698;2023-04-15T08:44:43;6.00;;;5.27;;
1569;SDS011;778;50.120;8.698;2023-04-15T08:47:13;7.40;;;6.70;;
1569;SDS011;778;50.120;8.698;2023-04-15T08:49:42;6.90;;;5.00;;
1569;SDS011;778;50.120;8.698;2023-04-15T08:52:11;6.47;;;5.10;;
1569;SDS011;778;50.120;8.698;2023-04-15T08:54:39;6.13;;;5.43;;
1569;SDS011;778;50.120;8.698;2023-04-15T08:57:10;6.40;;;5.30;;
1569;SDS011;778;50.120;8.698;2023-04-15T08:59:39;6.30;;;5.70;;
1569;SDS011;778;50.120;8.698;2023-04-15T09:02:09;5.90;;;4.90;;
1569;SDS011;778;50.120;8.698;2023-04-15T09:04:38;6.90;;;4.73;;
1569;SDS011;778;50.120;8.698;2023-04-15T09:07:07;5.07;;;4.57;;
1569;SDS011;778;50.120;8.698;2023-04-15T09:09:36;8.30;;;5.27;;
1569;SDS011;778;50.120;8.698;2023-04-15T09:12:05;5.33;;;4.83;;
1569;SDS011;778;50.120;8.698;2023-04-15T09:14:36;7.97;;;6.80;;
1569;SDS011;778;50.120;8.698;2023-04-15T09:17:07;8.03;;;5.33;;
1569;SDS011;778;50.120;8.698;2023-04-15T09:19:37;5.00;;;4.60;;
1569;SDS011;778;50.120;8.698;2023-04-15T09:22:06;6.20;;;3.67;;
1569;SDS011;778;50.120;8.698;2023-04-15T09:24:35;5.47;;;4.40;;
1569;SDS011;778;50.120;8.698;2023-04-15T09:27:06;6.57;;;3.97;;
1569;SDS011;778;50.120;8.698;2023-04-15T09:29:36;5.20;;;4.27;;
1569;SDS011;778;50.120;8.698;2023-04-15T09:32:11;4.10;;;3.70;;
1569;SDS011;778;50.120;8.698;2023-04-15T09:34:42;4.07;;;3.77;;
1569;SDS011;778;50.120;8.698;2023-04-15T09:37:11;4.47;;;4.07;;
1569;SDS011;778;50.120;8.698;2023-04-15T09:39:57;4.33;;;3.97;;
1569;SDS011;778;50.120;8.698;2023-04-15T09:42:25;6.70;;;4.03;;
1569;SDS011;778;50.120;8.698;2023-04-15T09:44:55;5.97;;;4.20;;
1569;SDS011;778;50.120;8.698;2023-04-15T09:47:35;4.07;;;3.63;;
1569;SDS011;778;50.120;8.698;2023-04-15T09:50:04;4.50;;;3.47;;
1569;SDS011;778;50.120;8.698;2023-04-15T09:52:39;4.60;;;4.20;;
1569;SDS011;778;50.120;8.698;2023-04-15T09:55:09;3.60;;;3.33;;
1569;SDS011;778;50.120;8.698;2023-04-15T09:57:39;7.07;;;3.13;;
1569;SDS011;778;50.120;8.698;2023-04-15T10:00:11;4.13;;;3.83;;
1569;SDS011;778;50.120;8.698;2023-04-15T10:02:41;3.80;;;3.50;;
1569;SDS011;778;50.120;8.698;2023-04-15T10:05:10;7.27;;;4.63;;
1569;SDS011;778;50.120;8.698;2023-04-15T10:07:41;6.23;;;3.50;;
1569;SDS011;778;50.120;8.698;2023-04-15T10:10:11;3.87;;;3.63;;
1569;SDS011;778;50.120;8.698;2023-04-15T10:12:41;4.03;;;3.63;;
1569;SDS011;778;50.120;8.698;2023-04-15T10:15:14;3.30;;;3.00;;
1569;SDS011;778;50.120;8.698;2023-04-15T10:17:43;3.93;;;3.63;;
1569;SDS011;778;50.120;8.698;2023-04-15T10:20:12;2.80;;;2.60;;
1569;SDS011;778;50.120;8.698;2023-04-15T10:22:44;3.87;;;3.43;;
1569;SDS011;778;50.120;8.698;2023-04-15T10:25:13;3.20;;;2.90;;
1569;SDS011;778;50.120;8.698;2023-04-15T10:27:42;3.20;;;2.87;;
1569;SDS011;778;50.120;8.698;2023-04-15T10:30:11;3.97;;;3.67;;
1569;SDS011;778;50.120;8.698;2023-04-15T10:32:42;3.57;;;3.23;;
1569;SDS011;778;50.120;8.698;2023-04-15T10:35:11;4.33;;;3.50;;
1569;SDS011;778;50.120;8.698;2023-04-15T10:37:40;3.70;;;3.37;;
1569;SDS011;778;50.120;8.698;2023-04-15T10:42:58;5.43;;;3.80;;
1569;SDS011;778;50.120;8.698;2023-04-15T10:45:30;6.20;;;3.50;;
1569;SDS011;778;50.120;8.698;2023-04-15T10:48:01;6.03;;;4.17;;
1569;SDS011;778;50.120;8.698;2023-04-15T10:50:33;5.30;;;3.63;;
1569;SDS011;778;50.120;8.698;2023-04-15T10:53:04;3.93;;;3.63;;
1569;SDS011;778;50.120;8.698;2023-04-15T10:55:37;3.83;;;3.40;;
1569;SDS011;778;50.120;8.698;2023-04-15T10:58:05;3.83;;;3.37;;
1569;SDS011;778;50.120;8.698;2023-04-15T11:00:37;4.17;;;3.77;;
1569;SDS011;778;50.120;8.698;2023-04-15T11:03:07;5.97;;;3.90;;
1569;SDS011;778;50.120;8.698;2023-04-15T11:05:50;4.93;;;3.57;;
1569;SDS011;778;50.120;8.698;2023-04-15T11:08:19;3.77;;;3.47;;
1569;SDS011;778;50.120;8.698;2023-04-15T11:11:20;3.97;;;3.50;;
1569;SDS011;778;50.120;8.698;2023-04-15T11:13:49;4.40;;;3.70;;
1569;SDS011;778;50.120;8.698;2023-04-15T11:16:20;3.57;;;3.23;;
1569;SDS011;778;50.120;8.698;2023-04-15T11:18:53;3.77;;;3.50;;
1569;SDS011;778;50.120;8.698;2023-04-15T11:21:23;3.97;;;3.67;;
1569;SDS011;778;50.120;8.698;2023-04-15T11:23:53;3.60;;;3.10;;
1569;SDS011;778;50.120;8.698;2023-04-15T11:26:24;4.03;;;3.73;;
1569;SDS011;778;50.120;8.698;2023-04-15T11:28:53;4.27;;;3.87;;
1569;SDS011;778;50.120;8.698;2023-04-15T11:31:25;4.97;;;4.57;;
1569;SDS011;778;50.120;8.698;2023-04-15T11:33:55;6.03;;;4.07;;
1569;SDS011;778;50.120;8.698;2023-04-15T11:36:28;4.67;;;4.20;;
1569;SDS011;778;50.120;8.698;2023-04-15T11:38:58;5.30;;;4.80;;
1569;SDS011;778;50.120;8.698;2023-04-15T11:41:27;4.33;;;3.93;;
1569;SDS011;778;50.120;8.698;2023-04-15T11:43:55;4.03;;;3.73;;
1569;SDS011;778;50.120;8.698;2023-04-15T11:46:29;4.97;;;4.00;;
1569;SDS011;778;50.120;8.698;2023-04-15T11:48:57;4.53;;;4.20;;
1569;SDS011;778;50.120;8.698;2023-04-15T11:51:26;4.03;;;3.73;;
1569;SDS011;778;50.120;8.698;2023-04-15T11:54:00;4.40;;;4.00;;
1569;SDS011;778;50.120;8.698;2023-04-15T11:56:29;4.70;;;4.30;;
1569;SDS011;778;50.120;8.698;2023-04-15T11:58:58;4.60;;;3.97;;
1569;SDS011;778;50.120;8.698;2023-04-15T12:01:32;4.20;;;3.60;;
1569;SDS011;778;50.120;8.698;2023-04-15T12:04:01;3.80;;;3.60;;
1569;SDS011;778;50.120;8.698;2023-04-15T12:06:38;4.23;;;3.83;;
1569;SDS011;778;50.120;8.698;2023-04-15T12:09:08;4.37;;;3.67;;
1569;SDS011;778;50.120;8.698;2023-04-15T12:11:40;4.27;;;3.83;;
1569;SDS011;778;50.120;8.698;2023-04-15T12:14:21;4.50;;;4.10;;
1569;SDS011;778;50.120;8.698;2023-04-15T12:16:54;4.63;;;4.23;;
1569;SDS011;778;50.120;8.698;2023-04-15T12:19:27;4.43;;;4.03;;
1569;SDS011;778;50.120;8.698;2023-04-15T12:21:58;4.77;;;4.13;;
1569;SDS011;778;50.120;8.698;2023-04-15T12:24:30;4.77;;;3.83;;
1569;SDS011;778;50.120;8.698;2023-04-15T12:27:03;4.63;;;3.97;;
1569;SDS011;778;50.120;8.698;2023-04-15T12:29:33;4.60;;;4.20;;
1569;SDS011;778;50.120;8.698;2023-04-15T12:32:06;5.53;;;4.40;;
1569;SDS011;778;50.120;8.698;2023-04-15T12:34:38;4.90;;;4.50;;
1569;SDS011;778;50.120;8.698;2023-04-15T12:37:08;5.03;;;4.57;;
1569;SDS011;778;50.120;8.698;2023-04-15T12:39:38;5.20;;;4.70;;
1569;SDS011;778;50.120;8.698;2023-04-15T12:42:09;5.20;;;4.50;;
1569;SDS011;778;50.120;8.698;2023-04-15T12:44:38;5.67;;;5.10;;
1569;SDS011;778;50.120;8.698;2023-04-15T12:47:08;4.97;;;4.57;;
1569;SDS011;778;50.120;8.698;2023-04-15T12:49:38;5.30;;;4.90;;
1569;SDS011;778;50.120;8.698;2023-04-15T12:52:07;5.00;;;4.60;;
1569;SDS011;778;50.120;8.698;2023-04-15T12:54:35;5.33;;;4.77;;
1569;SDS011;778;50.120;8.698;2023-04-15T12:57:03;3.13;;;2.83;;
1569;SDS011;778;50.120;8.698;2023-04-15T12:59:33;3.50;;;2.93;;
1569;SDS011;778;50.120;8.698;2023-04-15T13:02:02;3.60;;;3.20;;
1569;SDS011;778;50.120;8.698;2023-04-15T13:04:32;3.93;;;3.27;;
1569;SDS011;778;50.120;8.698;2023-04-15T13:07:01;4.67;;;4.13;;
1569;SDS011;778;50.120;8.698;2023-04-15T13:09:29;2.93;;;2.73;;
1569;SDS011;778;50.120;8.698;2023-04-15T13:11:57;2.90;;;2.70;;
1569;SDS011;778;50.120;8.698;2023-04-15T13:14:26;2.30;;;2.20;;
1569;SDS011;778;50.120;8.698;2023-04-15T13:16:55;2.07;;;1.87;;
1569;SDS011;778;50.120;8.698;2023-04-15T13:19:23;3.60;;;2.10;;
1569;SDS011;778;50.120;8.698;2023-04-15T13:21:53;2.00;;;1.90;;
1569;SDS011;778;50.120;8.698;2023-04-15T13:24:22;2.10;;;1.90;;
1569;SDS011;778;50.120;8.698;2023-04-15T13:26:51;2.33;;;2.10;;
1569;SDS011;778;50.120;8.698;2023-04-15T13:29:19;2.00;;;1.90;;
1569;SDS011;778;50.120;8.698;2023-04-15T13:31:48;2.03;;;1.77;;
1569;SDS011;778;50.120;8.698;2023-04-15T13:34:16;2.27;;;2.07;;
1569;SDS011;778;50.120;8.698;2023-04-15T13:36:44;1.40;;;1.23;;
1569;SDS011;778;50.120;8.698;2023-04-15T13:39:14;1.90;;;1.30;;
1569;SDS011;778;50.120;8.698;2023-04-15T13:41:43;1.43;;;1.17;;
1569;SDS011;778;50.120;8.698;2023-04-15T13:44:11;1.13;;;1.03;;
1569;SDS011;778;50.120;8.698;2023-04-15T13:46:40;1.50;;;1.40;;
1569;SDS011;778;50.120;8.698;2023-04-15T13:49:08;1.83;;;1.70;;
1569;SDS011;778;50.120;8.698;2023-04-15T13:51:37;1.40;;;1.30;;
1569;SDS011;778;50.120;8.698;2023-04-15T13:54:05;1.50;;;1.40;;
1569;SDS011;778;50.120;8.698;2023-04-15T13:56:35;2.13;;;1.60;;
1569;SDS011;778;50.120;8.698;2023-04-15T13:59:04;1.10;;;1.00;;
1569;SDS011;778;50.120;8.698;2023-04-15T14:01:35;20.47;;;16.97;;
1569;SDS011;778;50.120;8.698;2023-04-15T14:04:03;7.33;;;6.60;;
1569;SDS011;778;50.120;8.698;2023-04-15T14:06:32;1.63;;;1.40;;
1569;SDS011;778;50.120;8.698;2023-04-15T14:09:01;1.60;;;1.50;;
1569;SDS011;778;50.120;8.698;2023-04-15T14:11:30;1.60;;;1.50;;
1569;SDS011;778;50.120;8.698;2023-04-15T14:14:02;1.73;;;1.63;;
1569;SDS011;778;50.120;8.698;2023-04-15T14:16:31;1.57;;;1.47;;
1569;SDS011;778;50.120;8.698;2023-04-15T14:19:00;1.30;;;1.20;;
1569;SDS011;778;50.120;8.698;2023-04-15T14:21:29;2.07;;;1.97;;
1569;SDS011;778;50.120;8.698;2023-04-15T14:23:59;3.00;;;1.47;;
1569;SDS011;778;50.120;8.698;2023-04-15T14:26:27;1.60;;;1.50;;
1569;SDS011;778;50.120;8.698;2023-04-15T14:28:56;3.00;;;1.70;;
1569;SDS011;778;50.120;8.698;2023-04-15T14:31:26;1.60;;;1.50;;
1569;SDS011;778;50.120;8.698;2023-04-15T14:33:54;1.90;;;1.80;;
1569;SDS011;778;50.120;8.698;2023-04-15T14:36:22;1.77;;;1.67;;
1569;SDS011;778;50.120;8.698;2023-04-15T14:38:51;2.17;;;2.03;;
1569;SDS011;778;50.120;8.698;2023-04-15T14:41:19;1.60;;;1.50;;
1569;SDS011;778;50.120;8.698;2023-04-15T14:43:48;1.70;;;1.60;;
1569;SDS011;778;50.120;8.698;2023-04-15T14:46:17;1.63;;;1.53;;
1569;SDS011;778;50.120;8.698;2023-04-15T14:48:47;1.63;;;1.53;;
1569;SDS011;778;50.120;8.698;2023-04-15T14:51:15;1.87;;;1.73;;
1569;SDS011;778;50.120;8.698;2023-04-15T14:53:44;1.90;;;1.80;;
1569;SDS011;778;50.120;8.698;2023-04-15T14:56:12;2.37;;;2.17;;
1569;SDS011;778;50.120;8.698;2023-04-15T14:58:41;2.43;;;2.23;;
1569;SDS011;778;50.120;8.698;2023-04-15T15:01:09;1.63;;;1.53;;
1569;SDS011;778;50.120;8.698;2023-04-15T15:03:37;2.40;;;2.20;;
1569;SDS011;778;50.120;8.698;2023-04-15T15:06:08;1.97;;;1.87;;
1569;SDS011;778;50.120;8.698;2023-04-15T15:08:36;2.00;;;1.83;;
1569;SDS011;778;50.120;8.698;2023-04-15T15:11:04;1.97;;;1.80;;
1569;SDS011;778;50.120;8.698;2023-04-15T15:13:33;1.80;;;1.70;;
1569;SDS011;778;50.120;8.698;2023-04-15T15:16:01;1.90;;;1.80;;
1569;SDS011;778;50.120;8.698;2023-04-15T15:18:31;1.83;;;1.70;;
1569;SDS011;778;50.120;8.698;2023-04-15T15:20:59;2.33;;;2.13;;
1569;SDS011;778;50.120;8.698;2023-04-15T15:23:29;2.30;;;2.10;;
1569;SDS011;778;50.120;8.698;2023-04-15T15:25:57;2.37;;;2.17;;
1569;SDS011;778;50.120;8.698;2023-04-15T15:28:26;2.40;;;2.30;;
1569;SDS011;778;50.120;8.698;2023-04-15T15:30:54;2.30;;;1.87;;
1569;SDS011;778;50.120;8.698;2023-04-15T15:33:22;2.20;;;2.00;;
1569;SDS011;778;50.120;8.698;2023-04-15T15:35:52;1.70;;;1.60;;
1569;SDS011;778;50.120;8.698;2023-04-15T15:38:20;1.70;;;1.60;;
1569;SDS011;778;50.120;8.698;2023-04-15T15:40:50;1.90;;;1.80;;
1569;SDS011;778;50.120;8.698;2023-04-15T15:43:19;1.77;;;1.60;;